Time;durP1;ratioP1;P1;durP2;ratioP2;P2;SDS_P1;SDS_P2;PMS_P1;PMS_P2;Temp;Humidity;BMP_temperature;BMP_pressure;BME280_temperature;BME280_humidity;BME280_pressure;Samples;Min_cycle;Max_cycle;Signal;HPM_P1;HPM_P2
2021/10/02 00:36:53;;;;;;;1.73;1.10;;;15.90;90.10;;;;;;5113550;28;20402;-68
2021/10/02 00:44:49;;;;;;;2.00;0.63;;;15.90;90.10;;;;;;5117227;28;20888;-68
2021/10/02 00:47:20;;;;;;;1.00;0.63;;;15.90;90.10;;;;;;5116926;27;20447;-68
2021/10/02 00:49:48;;;;;;;1.77;0.63;;;16.00;90.10;;;;;;5117075;28;20431;-68
2021/10/02 00:52:17;;;;;;;1.10;0.70;;;16.00;90.00;;;;;;5116990;28;20439;-68
2021/10/02 00:54:45;;;;;;;1.10;0.63;;;16.00;89.80;;;;;;5116966;27;20451;-68
2021/10/02 00:57:13;;;;;;;0.80;0.80;;;16.00;89.70;;;;;;5116508;27;20936;-68
2021/10/02 00:59:41;;;;;;;1.33;0.80;;;16.00;89.70;;;;;;5116849;28;20439;-68
2021/10/02 01:02:14;;;;;;;2.87;0.97;;;16.00;90.00;;;;;;5116789;28;20511;-68
2021/10/02 01:04:52;;;;;;;2.20;0.73;;;16.00;90.00;;;;;;5116501;28;20940;-68
2021/10/02 01:07:27;;;;;;;1.20;1.10;;;16.00;90.10;;;;;;5116171;28;20485;-68
2021/10/02 01:10:10;;;;;;;2.10;1.00;;;16.00;90.10;;;;;;5116191;28;20446;-68
2021/10/02 01:12:49;;;;;;;1.17;0.80;;;16.00;89.90;;;;;;5116621;27;20181;-67
2021/10/02 01:15:22;;;;;;;2.00;1.03;;;15.90;90.10;;;;;;5116625;27;20435;-68
2021/10/02 01:17:53;;;;;;;0.90;0.80;;;15.90;90.20;;;;;;5116285;28;20494;-68
2021/10/02 01:20:34;;;;;;;2.00;0.90;;;15.90;90.30;;;;;;5116765;28;20427;-68
2021/10/02 01:23:33;;;;;;;4.90;0.50;;;15.90;90.20;;;;;;5116396;28;20428;-68
2021/10/02 01:26:19;;;;;;;1.73;0.80;;;15.80;90.20;;;;;;5116310;28;20454;-68
2021/10/02 01:28:52;;;;;;;3.03;0.77;;;15.80;90.00;;;;;;5116166;28;20482;-68
2021/10/02 01:31:23;;;;;;;0.63;0.63;;;15.80;90.00;;;;;;5115964;28;20466;-68
2021/10/02 01:33:57;;;;;;;0.60;0.60;;;15.80;90.00;;;;;;5116222;28;20473;-68
2021/10/02 01:36:42;;;;;;;1.47;0.70;;;15.80;90.20;;;;;;5116151;28;20435;-68
2021/10/02 01:47:31;;;;;;;0.50;0.50;;;15.80;90.20;;;;;;5115833;28;20449;-68
2021/10/02 01:50:00;;;;;;;0.87;0.53;;;15.70;90.30;;;;;;5115663;28;20447;-68
2021/10/02 01:52:32;;;;;;;1.57;0.80;;;15.80;90.40;;;;;;5115112;28;20427;-68
2021/10/02 01:55:01;;;;;;;0.80;0.80;;;15.80;90.40;;;;;;5115790;28;20423;-68
2021/10/02 01:57:34;;;;;;;1.73;0.80;;;15.80;90.30;;;;;;5115323;28;20478;-68
2021/10/02 02:00:07;;;;;;;3.17;0.73;;;15.80;90.20;;;;;;5115728;28;20967;-68
2021/10/02 02:02:35;;;;;;;4.00;0.70;;;15.80;90.30;;;;;;5115636;28;20431;-68
2021/10/02 02:05:05;;;;;;;1.23;0.60;;;15.80;90.40;;;;;;5115593;28;20434;-68
2021/10/02 02:07:34;;;;;;;1.70;0.77;;;15.80;90.30;;;;;;5115115;28;20482;-68
2021/10/02 02:10:02;;;;;;;2.03;0.93;;;15.80;90.40;;;;;;5116018;28;20435;-68
2021/10/02 02:12:32;;;;;;;1.23;0.77;;;15.90;90.50;;;;;;5115451;28;20442;-68
2021/10/02 02:15:01;;;;;;;1.53;1.10;;;15.90;90.50;;;;;;5115466;28;20845;-68
2021/10/02 02:17:29;;;;;;;0.80;0.70;;;15.90;90.20;;;;;;5115292;27;20603;-68
2021/10/02 02:19:58;;;;;;;1.00;0.63;;;15.90;90.20;;;;;;5115286;28;20431;-67
2021/10/02 02:22:25;;;;;;;1.00;1.00;;;15.90;90.10;;;;;;5115267;28;20459;-67
2021/10/02 02:24:52;;;;;;;2.23;0.90;;;15.90;90.00;;;;;;5115140;28;20447;-67
2021/10/02 02:27:19;;;;;;;0.60;0.60;;;15.90;89.90;;;;;;5115086;28;20455;-68
2021/10/02 02:29:48;;;;;;;0.77;0.70;;;15.90;89.90;;;;;;5114977;28;20470;-68
2021/10/02 02:32:17;;;;;;;1.23;0.87;;;15.90;89.90;;;;;;5115004;28;20447;-68
2021/10/02 02:34:46;;;;;;;1.17;0.63;;;15.90;89.80;;;;;;5115009;28;20438;-68
2021/10/02 02:37:13;;;;;;;0.87;0.70;;;15.80;89.80;;;;;;5114538;28;20932;-68
2021/10/02 02:39:40;;;;;;;0.53;0.50;;;15.90;89.90;;;;;;5114896;28;20462;-68
2021/10/02 02:42:07;;;;;;;1.07;0.80;;;15.80;89.60;;;;;;5114833;28;20446;-68
2021/10/02 02:44:34;;;;;;;0.63;0.60;;;15.90;89.50;;;;;;5114787;28;20439;-68
2021/10/02 02:47:05;;;;;;;1.57;0.70;;;15.90;89.60;;;;;;5114713;28;20446;-68
2021/10/02 02:49:42;;;;;;;1.47;1.30;;;15.90;89.70;;;;;;5114654;28;20471;-68
2021/10/02 02:52:15;;;;;;;1.10;0.90;;;15.90;89.50;;;;;;5114724;28;20439;-68
2021/10/02 02:54:46;;;;;;;2.23;0.83;;;15.80;89.50;;;;;;5114705;28;20438;-68
2021/10/02 02:57:16;;;;;;;0.80;0.80;;;15.80;89.90;;;;;;5114206;28;20920;-68
2021/10/02 02:59:46;;;;;;;1.23;0.60;;;15.90;90.00;;;;;;5114614;27;20423;-68
2021/10/02 03:02:20;;;;;;;1.33;0.80;;;15.90;89.90;;;;;;5113740;28;20438;-68
2021/10/02 03:04:50;;;;;;;2.53;0.70;;;15.90;90.20;;;;;;5114490;28;20435;-68
2021/10/02 03:07:22;;;;;;;0.90;0.70;;;16.00;89.70;;;;;;5114099;28;20471;-68
2021/10/02 03:09:52;;;;;;;1.17;0.77;;;16.00;89.60;;;;;;5114347;28;20485;-68
2021/10/02 03:12:25;;;;;;;1.30;0.80;;;16.00;89.70;;;;;;5114333;28;20439;-68
2021/10/02 03:14:54;;;;;;;4.03;0.83;;;16.00;89.90;;;;;;5114311;28;20435;-68
2021/10/02 03:17:22;;;;;;;1.33;0.60;;;15.90;89.70;;;;;;5114214;28;20463;-68
2021/10/02 03:19:50;;;;;;;1.50;0.93;;;15.90;88.90;;;;;;5114228;28;20435;-68
2021/10/02 03:22:18;;;;;;;2.13;0.93;;;16.00;88.90;;;;;;5114241;28;20485;-68
2021/10/02 03:24:47;;;;;;;3.23;1.10;;;16.00;88.30;;;;;;5114156;28;20454;-68
2021/10/02 03:27:15;;;;;;;4.20;0.90;;;16.00;88.30;;;;;;5114048;28;20450;-68
2021/10/02 03:29:43;;;;;;;2.13;1.00;;;16.00;88.60;;;;;;5114018;28;20479;-68
2021/10/02 03:32:10;;;;;;;2.00;0.70;;;16.00;88.50;;;;;;5114087;28;20805;-68
2021/10/02 03:34:38;;;;;;;1.37;0.90;;;15.90;88.30;;;;;;5114007;28;20476;-68
2021/10/02 03:37:05;;;;;;;4.43;1.20;;;15.90;88.60;;;;;;5113631;28;20446;-68
2021/10/02 03:39:34;;;;;;;2.93;1.13;;;15.90;88.90;;;;;;5113981;28;20438;-68
2021/10/02 03:42:14;;;;;;;1.23;0.97;;;15.90;88.90;;;;;;5114018;28;20439;-68
2021/10/02 03:44:43;;;;;;;0.90;0.70;;;15.90;88.70;;;;;;5114558;28;20435;-68
2021/10/02 03:47:09;;;;;;;1.13;0.80;;;15.90;88.50;;;;;;5113624;28;20442;-68
2021/10/02 03:49:36;;;;;;;1.23;0.90;;;15.90;88.20;;;;;;5113820;28;20482;-68
2021/10/02 03:55:27;;;;;;;2.63;1.53;;;16.00;88.10;;;;;;5113613;28;20402;-68
2021/10/02 03:57:54;;;;;;;2.70;1.80;;;15.90;87.90;;;;;;5113412;28;20466;-68
2021/10/02 04:04:35;;;;;;;2.23;1.70;;;16.00;88.20;;;;;;5114178;28;20418;-68
2021/10/02 04:07:02;;;;;;;1.80;1.60;;;15.90;88.00;;;;;;5113319;28;20458;-68
2021/10/02 04:09:29;;;;;;;2.60;2.17;;;15.90;88.20;;;;;;5113619;28;20478;-68
2021/10/02 04:11:57;;;;;;;5.90;2.30;;;15.90;88.60;;;;;;5113778;28;20442;-68
2021/10/02 04:14:24;;;;;;;2.90;2.13;;;15.90;88.60;;;;;;5115385;28;20446;-68
2021/10/02 04:16:51;;;;;;;2.33;2.13;;;15.90;88.50;;;;;;5117371;28;20928;-68
2021/10/02 04:19:18;;;;;;;2.37;2.17;;;15.90;88.50;;;;;;5117245;28;20984;-68
2021/10/02 04:21:45;;;;;;;2.50;2.30;;;16.00;88.90;;;;;;5117562;28;20442;-68
2021/10/02 04:24:11;;;;;;;2.50;2.30;;;15.90;88.90;;;;;;5117562;28;20449;-68
2021/10/02 04:26:39;;;;;;;2.37;1.80;;;15.90;89.00;;;;;;5117379;28;20451;-68
2021/10/02 04:29:07;;;;;;;2.57;2.20;;;15.90;89.00;;;;;;5117076;28;20991;-68
2021/10/02 04:31:34;;;;;;;3.53;2.50;;;15.90;89.00;;;;;;5118050;27;20508;-68
2021/10/02 04:34:00;;;;;;;5.80;2.00;;;15.90;89.70;;;;;;5116981;28;20818;-68
2021/10/02 04:36:27;;;;;;;1.57;1.47;;;15.90;89.70;;;;;;5117210;28;20463;-68
2021/10/02 04:38:54;;;;;;;1.80;1.70;;;15.80;89.60;;;;;;5117270;28;20463;-68
2021/10/02 04:41:21;;;;;;;2.20;2.00;;;15.80;89.70;;;;;;5116886;28;20945;-68
2021/10/02 04:43:48;;;;;;;3.83;2.07;;;15.80;89.80;;;;;;5117145;28;20434;-68
2021/10/02 04:46:18;;;;;;;2.50;1.90;;;15.90;90.00;;;;;;5117064;28;20459;-68
2021/10/02 04:48:46;;;;;;;2.53;2.10;;;15.80;90.10;;;;;;5116940;27;20489;-68
2021/10/02 04:51:13;;;;;;;2.93;2.10;;;15.80;90.10;;;;;;5117063;28;20451;-68
2021/10/02 04:53:40;;;;;;;1.43;1.30;;;15.80;90.00;;;;;;5116998;28;20450;-68
2021/10/02 04:56:09;;;;;;;1.30;1.30;;;15.90;90.00;;;;;;5116668;28;20442;-68
2021/10/02 04:58:36;;;;;;;3.20;1.70;;;15.90;90.00;;;;;;5116842;28;20841;-68
2021/10/02 05:01:06;;;;;;;2.07;1.97;;;15.90;90.10;;;;;;5116503;28;20450;-68
2021/10/02 05:03:34;;;;;;;2.07;1.90;;;15.90;90.10;;;;;;5116740;28;20529;-68
2021/10/02 05:06:02;;;;;;;3.43;1.90;;;15.80;90.10;;;;;;5116593;28;20459;-69
2021/10/02 05:08:28;;;;;;;2.30;2.07;;;15.80;90.20;;;;;;5116622;28;20550;-69
2021/10/02 05:10:55;;;;;;;2.20;2.00;;;15.90;90.30;;;;;;5116614;28;20474;-68
2021/10/02 05:13:22;;;;;;;2.10;2.00;;;15.90;90.40;;;;;;5116831;28;20443;-69
2021/10/02 05:15:49;;;;;;;3.40;2.37;;;15.90;90.40;;;;;;5116311;28;20932;-69
2021/10/02 05:18:15;;;;;;;2.70;2.50;;;15.90;90.40;;;;;;5116503;28;20465;-69
2021/10/02 05:20:44;;;;;;;5.73;2.50;;;15.90;90.50;;;;;;5116452;28;20443;-69
2021/10/02 05:23:10;;;;;;;3.00;2.43;;;15.80;90.40;;;;;;5116401;27;20447;-68
2021/10/02 05:25:38;;;;;;;3.00;2.77;;;15.80;90.40;;;;;;5115076;27;20951;-69
2021/10/02 05:28:05;;;;;;;2.97;2.67;;;15.80;90.40;;;;;;5116320;28;20523;-69
2021/10/02 05:30:32;;;;;;;8.30;2.10;;;15.70;90.30;;;;;;5116292;28;20473;-68
2021/10/02 05:32:59;;;;;;;2.17;1.87;;;15.70;90.40;;;;;;5116216;27;20455;-69
2021/10/02 05:35:26;;;;;;;1.63;1.50;;;15.70;90.40;;;;;;5116169;28;20482;-68
2021/10/02 05:37:54;;;;;;;2.13;1.70;;;15.60;90.40;;;;;;5116054;28;20459;-68
2021/10/02 05:40:20;;;;;;;1.77;1.33;;;15.60;90.40;;;;;;5116108;28;20430;-68
2021/10/02 05:42:47;;;;;;;2.03;1.40;;;15.60;90.40;;;;;;5115746;28;20435;-69
2021/10/02 05:45:14;;;;;;;1.50;1.40;;;15.60;90.40;;;;;;5116033;28;20780;-68
2021/10/02 05:47:41;;;;;;;1.60;1.43;;;15.60;90.40;;;;;;5115895;28;20854;-68
2021/10/02 05:50:09;;;;;;;1.87;1.40;;;15.60;90.30;;;;;;5115850;28;20490;-68
2021/10/02 05:52:36;;;;;;;1.33;1.23;;;15.60;90.20;;;;;;5115565;28;20443;-68
2021/10/02 05:55:07;;;;;;;1.30;1.20;;;15.60;90.10;;;;;;5115797;28;20443;-68
2021/10/02 05:57:34;;;;;;;1.37;1.27;;;15.60;89.90;;;;;;5116553;28;20557;-68
2021/10/02 06:00:01;;;;;;;1.23;1.13;;;15.60;89.30;;;;;;5115747;28;20457;-68
2021/10/02 06:02:28;;;;;;;1.40;1.13;;;15.60;88.60;;;;;;5115602;28;20458;-68
2021/10/02 06:04:55;;;;;;;2.50;1.30;;;15.60;88.30;;;;;;5115027;28;20450;-68
2021/10/02 06:07:22;;;;;;;2.20;1.20;;;15.60;88.10;;;;;;5115788;28;20996;-69
2021/10/02 06:09:48;;;;;;;1.90;1.33;;;15.60;88.20;;;;;;5115547;28;20465;-68
2021/10/02 06:12:16;;;;;;;2.57;1.43;;;15.70;88.30;;;;;;5115504;27;20429;-68
2021/10/02 06:14:43;;;;;;;2.50;1.10;;;15.70;88.80;;;;;;5115477;27;20424;-68
2021/10/02 06:17:10;;;;;;;1.40;1.00;;;15.70;88.90;;;;;;5115356;28;20428;-69
2021/10/02 06:19:36;;;;;;;1.00;0.97;;;15.70;88.70;;;;;;5115332;28;20426;-68
2021/10/02 06:22:04;;;;;;;1.83;1.60;;;15.70;88.30;;;;;;5114972;28;20932;-68
2021/10/02 06:24:31;;;;;;;1.20;1.10;;;15.80;88.20;;;;;;5115272;28;20443;-68
2021/10/02 06:26:58;;;;;;;2.77;1.37;;;15.80;88.00;;;;;;5115168;28;20482;-68
2021/10/02 06:29:26;;;;;;;2.10;1.30;;;15.90;87.90;;;;;;5115070;28;20478;-68
2021/10/02 06:31:53;;;;;;;1.47;1.37;;;15.90;87.90;;;;;;5115116;28;20457;-68
2021/10/02 06:34:20;;;;;;;2.43;1.40;;;15.90;87.80;;;;;;5115484;28;20442;-69
2021/10/02 06:36:46;;;;;;;3.33;1.53;;;16.00;87.80;;;;;;5114489;27;20941;-69
2021/10/02 06:39:13;;;;;;;1.63;1.10;;;16.00;87.60;;;;;;5115204;28;20467;-68
2021/10/02 06:41:40;;;;;;;1.83;1.10;;;16.00;87.50;;;;;;5114911;28;20812;-68
2021/10/02 06:44:08;;;;;;;3.77;1.60;;;16.00;87.50;;;;;;5114530;28;20450;-68
2021/10/02 06:46:36;;;;;;;3.40;1.10;;;16.00;87.80;;;;;;5114459;28;20450;-68
2021/10/02 06:49:03;;;;;;;4.00;1.73;;;16.10;88.10;;;;;;5114637;28;20459;-68
2021/10/02 06:51:30;;;;;;;3.13;1.00;;;16.10;87.90;;;;;;5114723;28;20458;-68
2021/10/02 06:53:57;;;;;;;3.43;1.00;;;16.10;88.30;;;;;;5114355;28;20443;-68
2021/10/02 06:56:23;;;;;;;2.17;1.10;;;16.20;88.50;;;;;;5114638;28;20443;-68
2021/10/02 06:58:50;;;;;;;2.70;1.13;;;16.20;88.70;;;;;;5115349;28;20490;-69
2021/10/02 07:01:17;;;;;;;3.03;1.37;;;16.30;88.40;;;;;;5114497;27;20455;-69
2021/10/02 07:03:45;;;;;;;1.80;1.20;;;16.30;88.00;;;;;;5114269;28;20431;-69
2021/10/02 07:06:12;;;;;;;1.63;1.43;;;16.40;87.70;;;;;;5113988;28;20478;-69
2021/10/02 07:08:38;;;;;;;1.43;1.10;;;16.50;87.80;;;;;;5114419;28;20463;-69
2021/10/02 07:11:05;;;;;;;1.40;1.20;;;16.60;88.30;;;;;;5114553;28;20505;-68
2021/10/02 07:13:32;;;;;;;1.30;1.20;;;16.70;88.30;;;;;;5114434;28;20443;-68
2021/10/02 07:15:59;;;;;;;1.77;1.20;;;16.80;88.00;;;;;;5114294;28;20525;-68
2021/10/02 07:18:26;;;;;;;6.23;1.10;;;16.80;87.80;;;;;;5114238;28;20466;-69
2021/10/02 07:20:54;;;;;;;1.80;1.47;;;16.80;86.80;;;;;;5114288;28;20800;-69
2021/10/02 07:23:21;;;;;;;1.37;0.83;;;16.80;86.80;;;;;;5113874;28;20948;-69
2021/10/02 07:25:48;;;;;;;1.17;1.07;;;16.80;86.80;;;;;;5114204;28;20453;-69
2021/10/02 07:28:15;;;;;;;1.00;0.90;;;16.80;86.70;;;;;;5114127;28;20474;-69
2021/10/02 07:30:42;;;;;;;1.77;1.10;;;16.80;86.70;;;;;;5114303;28;20474;-69
2021/10/02 07:33:09;;;;;;;1.20;1.10;;;16.70;86.50;;;;;;5113849;28;20889;-69
2021/10/02 07:35:35;;;;;;;1.20;1.10;;;16.80;86.80;;;;;;5113772;28;20451;-69
2021/10/02 07:38:04;;;;;;;1.03;1.03;;;16.80;86.70;;;;;;5114208;28;20492;-69
2021/10/02 07:40:31;;;;;;;1.40;1.30;;;16.80;86.70;;;;;;5113997;28;20442;-69
2021/10/02 07:42:59;;;;;;;0.90;0.90;;;16.70;86.40;;;;;;5113968;28;20450;-68
2021/10/02 07:45:26;;;;;;;2.60;1.00;;;16.80;86.60;;;;;;5113918;28;20546;-68
2021/10/02 07:47:55;;;;;;;1.07;1.00;;;16.80;86.70;;;;;;5114167;28;20467;-69
2021/10/02 07:50:23;;;;;;;1.67;0.93;;;16.80;86.30;;;;;;5117617;28;20474;-69
2021/10/02 07:52:51;;;;;;;0.80;0.80;;;16.80;86.20;;;;;;5118280;28;20431;-69
2021/10/02 07:55:19;;;;;;;0.77;0.77;;;16.90;86.20;;;;;;5118165;28;20495;-69
2021/10/02 07:57:48;;;;;;;1.07;0.70;;;16.90;86.20;;;;;;5118024;28;20493;-69
2021/10/02 08:00:19;;;;;;;0.90;0.90;;;17.00;85.60;;;;;;5118086;28;20857;-69
2021/10/02 08:02:47;;;;;;;0.97;0.87;;;17.00;85.50;;;;;;5117751;28;20955;-68
2021/10/02 08:05:15;;;;;;;0.60;0.60;;;17.00;85.00;;;;;;5117759;28;20424;-68
2021/10/02 08:07:44;;;;;;;0.70;0.67;;;17.00;84.80;;;;;;5117482;28;20497;-69
2021/10/02 08:10:12;;;;;;;2.10;1.13;;;17.10;85.00;;;;;;5117858;28;20459;-68
2021/10/02 08:12:41;;;;;;;1.27;1.00;;;17.10;84.60;;;;;;5117826;28;20466;-69
2021/10/02 08:15:09;;;;;;;1.60;1.00;;;17.10;84.10;;;;;;5117768;28;20450;-69
2021/10/02 08:17:38;;;;;;;0.97;0.97;;;17.20;84.50;;;;;;5117473;28;20967;-69
2021/10/02 08:20:09;;;;;;;2.80;0.80;;;17.20;84.40;;;;;;5117749;28;20443;-68
2021/10/02 08:22:38;;;;;;;1.27;0.93;;;17.30;84.30;;;;;;5117959;28;20431;-69
2021/10/02 08:25:06;;;;;;;1.07;0.97;;;17.30;83.90;;;;;;5117654;28;20548;-69
2021/10/02 08:27:34;;;;;;;1.40;1.30;;;17.40;83.50;;;;;;5117402;28;20968;-69
2021/10/02 08:30:05;;;;;;;2.53;1.40;;;17.50;82.90;;;;;;5117718;28;20470;-69
2021/10/02 08:32:32;;;;;;;1.60;1.43;;;17.50;82.60;;;;;;5117676;27;20435;-69
2021/10/02 08:34:59;;;;;;;1.50;1.40;;;17.50;82.00;;;;;;5117387;28;20423;-69
2021/10/02 08:37:26;;;;;;;1.80;1.20;;;17.50;81.90;;;;;;5117582;28;20470;-69
2021/10/02 08:39:52;;;;;;;1.20;1.00;;;17.50;81.80;;;;;;5117347;28;20433;-69
2021/10/02 08:42:21;;;;;;;1.20;1.10;;;17.50;81.90;;;;;;5117341;28;20431;-69
2021/10/02 08:44:51;;;;;;;1.03;1.00;;;17.60;82.90;;;;;;5117187;28;20450;-68
2021/10/02 08:47:20;;;;;;;1.33;1.00;;;17.70;81.30;;;;;;5117105;28;20427;-69
2021/10/02 08:49:49;;;;;;;1.53;0.97;;;17.80;80.40;;;;;;5117017;28;20466;-68
2021/10/02 08:52:18;;;;;;;1.70;1.10;;;17.90;80.00;;;;;;5117107;28;20800;-68
2021/10/02 08:54:46;;;;;;;1.03;1.03;;;18.10;79.00;;;;;;5116716;28;20449;-68
2021/10/02 08:57:16;;;;;;;1.43;1.00;;;18.20;78.40;;;;;;5116995;28;20462;-69
2021/10/02 08:59:43;;;;;;;0.90;0.90;;;18.40;78.10;;;;;;5116902;27;20430;-69
2021/10/02 09:02:11;;;;;;;1.53;0.80;;;18.70;77.40;;;;;;5116863;28;20431;-69
2021/10/02 09:04:40;;;;;;;1.27;1.00;;;19.00;76.00;;;;;;5116520;28;20873;-68
2021/10/02 09:07:07;;;;;;;1.20;1.10;;;19.40;75.10;;;;;;5116403;28;20458;-69
2021/10/02 09:09:35;;;;;;;1.20;1.10;;;19.60;72.50;;;;;;5116742;28;20443;-69
2021/10/02 09:12:04;;;;;;;1.30;0.90;;;19.90;71.90;;;;;;5116585;28;20474;-69
2021/10/02 09:14:31;;;;;;;0.80;0.80;;;20.00;70.80;;;;;;5116655;28;20434;-69
2021/10/02 09:16:57;;;;;;;2.60;1.83;;;20.20;69.80;;;;;;5116631;28;20451;-69
2021/10/02 09:19:24;;;;;;;1.20;1.03;;;20.10;68.10;;;;;;5116496;27;20471;-69
2021/10/02 09:21:58;;;;;;;1.07;0.97;;;19.90;68.40;;;;;;5116388;28;20503;-68
2021/10/02 09:24:27;;;;;;;0.90;0.90;;;19.80;69.90;;;;;;5116436;28;20446;-69
2021/10/02 09:26:54;;;;;;;1.30;1.20;;;19.70;70.80;;;;;;5116444;28;20496;-69
2021/10/02 09:29:39;;;;;;;0.80;0.80;;;19.50;70.90;;;;;;5116306;28;20467;-69
2021/10/02 09:32:08;;;;;;;1.47;0.70;;;19.30;72.00;;;;;;5116215;27;20490;-69
2021/10/02 09:34:45;;;;;;;1.10;1.00;;;19.10;72.50;;;;;;5116271;28;20454;-69
2021/10/02 09:37:28;;;;;;;1.97;1.00;;;19.10;73.40;;;;;;5115839;28;20481;-69
2021/10/02 09:39:59;;;;;;;1.10;1.00;;;19.10;73.60;;;;;;5116244;28;20427;-69
2021/10/02 09:42:35;;;;;;;1.00;1.00;;;19.10;73.70;;;;;;5116189;28;20434;-69
2021/10/02 09:45:09;;;;;;;2.00;0.70;;;19.20;73.70;;;;;;5116117;28;20445;-69
2021/10/02 09:47:37;;;;;;;0.97;0.97;;;19.30;73.60;;;;;;5116028;28;20463;-69
2021/10/02 09:50:12;;;;;;;1.17;1.00;;;19.40;73.20;;;;;;5116130;28;20447;-69
2021/10/02 09:52:42;;;;;;;0.80;0.50;;;19.50;72.90;;;;;;5115937;27;20437;-69
2021/10/02 09:55:23;;;;;;;0.93;0.93;;;19.50;72.20;;;;;;5115896;28;20427;-69
2021/10/02 09:57:52;;;;;;;1.20;1.10;;;19.70;71.90;;;;;;5115767;28;20463;-69
2021/10/02 10:00:21;;;;;;;0.50;0.50;;;19.90;71.90;;;;;;5115692;27;20446;-69
2021/10/02 10:02:48;;;;;;;1.10;1.00;;;20.10;71.00;;;;;;5115698;28;20446;-69
2021/10/02 10:05:16;;;;;;;1.40;0.60;;;20.10;70.10;;;;;;5115670;27;20443;-69
2021/10/02 10:07:54;;;;;;;1.60;1.07;;;20.20;69.40;;;;;;5115442;28;20495;-69
2021/10/02 10:10:22;;;;;;;3.77;0.97;;;20.30;69.00;;;;;;5115497;28;20428;-69
2021/10/02 10:12:49;;;;;;;0.83;0.80;;;20.40;69.10;;;;;;5114660;28;20971;-69
2021/10/02 10:15:34;;;;;;;3.80;0.73;;;20.70;68.00;;;;;;5115454;28;20450;-69
2021/10/02 10:18:01;;;;;;;1.00;0.90;;;20.80;66.90;;;;;;5115374;28;20469;-68
2021/10/02 10:20:34;;;;;;;1.30;1.20;;;20.60;66.40;;;;;;5115378;28;20435;-69
2021/10/02 10:23:03;;;;;;;1.20;0.90;;;20.50;67.60;;;;;;5115552;28;20446;-69
2021/10/02 10:25:30;;;;;;;0.70;0.70;;;20.30;68.00;;;;;;5115278;28;20476;-69
2021/10/02 10:27:59;;;;;;;0.93;0.93;;;20.40;69.10;;;;;;5115119;28;20463;-69
2021/10/02 10:30:28;;;;;;;1.00;0.73;;;20.60;66.30;;;;;;5115064;28;20443;-69
2021/10/02 10:32:58;;;;;;;2.30;0.90;;;20.70;65.70;;;;;;5115068;28;20482;-68
2021/10/02 10:35:27;;;;;;;0.83;0.60;;;20.70;64.40;;;;;;5114796;28;20435;-69
2021/10/02 10:37:54;;;;;;;2.90;0.53;;;20.70;64.60;;;;;;5114966;28;20463;-69
2021/10/02 10:40:23;;;;;;;0.83;0.60;;;20.80;65.80;;;;;;5115009;28;20437;-69
2021/10/02 10:42:52;;;;;;;3.53;1.10;;;20.70;64.40;;;;;;5114580;28;20932;-69
2021/10/02 10:45:18;;;;;;;2.57;0.77;;;20.70;64.70;;;;;;5114589;28;20430;-69
2021/10/02 10:47:45;;;;;;;1.60;0.63;;;20.50;65.30;;;;;;5115115;28;20479;-69
2021/10/02 10:50:13;;;;;;;1.60;1.13;;;20.50;65.60;;;;;;5114815;28;20459;-69
2021/10/02 10:52:41;;;;;;;1.17;0.83;;;20.50;65.30;;;;;;5114558;28;20474;-68
2021/10/02 10:55:13;;;;;;;0.60;0.50;;;20.40;65.30;;;;;;5114827;28;20423;-69
2021/10/02 10:57:44;;;;;;;2.40;0.77;;;20.40;65.60;;;;;;5114527;28;20467;-69
2021/10/02 11:00:14;;;;;;;3.53;1.00;;;20.30;66.10;;;;;;5114577;28;20519;-69
2021/10/02 11:02:43;;;;;;;2.20;0.73;;;20.40;66.00;;;;;;5114732;28;20790;-69
2021/10/02 11:05:44;;;;;;;2.50;1.07;;;20.60;66.00;;;;;;5114242;28;20818;-69
2021/10/02 11:08:12;;;;;;;3.63;0.80;;;21.10;64.60;;;;;;5114202;28;20506;-69
2021/10/02 11:10:46;;;;;;;0.80;0.70;;;21.70;61.20;;;;;;5114515;28;20796;-69
2021/10/02 11:13:15;;;;;;;2.67;0.80;;;21.90;59.00;;;;;;5114394;28;20439;-69
2021/10/02 11:15:43;;;;;;;1.00;0.80;;;22.40;58.60;;;;;;5114664;28;20439;-69
2021/10/02 11:18:43;;;;;;;0.83;0.50;;;22.70;57.10;;;;;;5113942;28;20839;-69
2021/10/02 11:21:12;;;;;;;0.83;0.50;;;23.20;56.30;;;;;;5114342;28;20495;-69
2021/10/02 11:24:03;;;;;;;2.00;0.50;;;23.80;55.20;;;;;;5113403;28;20443;-68
2021/10/02 11:26:48;;;;;;;1.70;0.60;;;24.20;53.40;;;;;;5114307;28;20439;-68
2021/10/02 11:29:23;;;;;;;2.13;0.60;;;24.30;53.00;;;;;;5116287;28;20527;-69
2021/10/02 11:31:52;;;;;;;0.67;0.60;;;24.10;53.30;;;;;;5115650;28;20462;-69
2021/10/02 11:34:21;;;;;;;1.53;0.57;;;24.10;53.20;;;;;;5114385;28;20432;-69
2021/10/02 11:36:54;;;;;;;2.33;0.70;;;24.10;54.00;;;;;;5114931;28;20447;-69
2021/10/02 11:39:28;;;;;;;3.20;0.53;;;24.00;53.10;;;;;;5114058;28;20553;-69
2021/10/02 11:41:57;;;;;;;1.67;0.70;;;23.90;53.60;;;;;;5114049;28;20419;-69
2021/10/02 11:44:44;;;;;;;1.53;0.50;;;24.30;53.40;;;;;;5113998;28;20450;-69
2021/10/02 11:47:32;;;;;;;0.70;0.40;;;24.70;50.70;;;;;;5113639;28;20975;-69
2021/10/02 11:50:28;;;;;;;0.53;0.53;;;24.30;51.00;;;;;;5114033;28;20427;-69
2021/10/02 11:53:25;;;;;;;0.50;0.50;;;23.80;51.90;;;;;;5114183;28;20512;-69
2021/10/02 11:55:52;;;;;;;0.87;0.50;;;23.50;52.50;;;;;;5051426;28;20426;-69
2021/10/02 11:58:20;;;;;;;0.57;0.40;;;23.40;52.70;;;;;;5099234;28;20569;-69
2021/10/02 12:00:51;;;;;;;0.57;0.57;;;23.30;52.90;;;;;;5113887;28;20452;-69
2021/10/02 12:03:19;;;;;;;0.50;0.40;;;23.30;52.50;;;;;;5113900;28;20423;-69
2021/10/02 12:05:49;;;;;;;0.40;0.40;;;23.50;52.50;;;;;;5113739;28;20434;-69
2021/10/02 12:08:17;;;;;;;0.80;0.50;;;23.70;51.40;;;;;;5113776;28;20454;-69
2021/10/02 12:10:59;;;;;;;1.60;0.77;;;24.00;51.20;;;;;;5113439;28;20446;-69
2021/10/02 12:13:28;;;;;;;0.57;0.40;;;23.70;51.30;;;;;;5113766;28;20427;-69
2021/10/02 12:16:04;;;;;;;0.80;0.50;;;23.40;52.30;;;;;;5113720;28;20453;-69
2021/10/02 12:18:52;;;;;;;0.53;0.50;;;23.10;52.80;;;;;;5113330;28;20466;-69
2021/10/02 12:21:41;;;;;;;0.70;0.43;;;22.60;53.20;;;;;;5113667;28;20439;-69
2021/10/02 12:24:18;;;;;;;0.93;0.43;;;22.30;54.60;;;;;;5113752;28;20427;-69
2021/10/02 12:26:49;;;;;;;1.33;0.70;;;21.90;55.50;;;;;;5113932;28;20433;-69
2021/10/02 12:29:19;;;;;;;1.00;0.80;;;21.70;56.20;;;;;;5113565;28;20463;-69
2021/10/02 12:32:05;;;;;;;0.50;0.50;;;21.60;56.30;;;;;;5113418;28;20474;-69
2021/10/02 12:34:35;;;;;;;0.90;0.60;;;21.40;56.60;;;;;;5114173;28;20466;-69
2021/10/02 12:37:04;;;;;;;2.17;0.73;;;21.40;57.00;;;;;;5117136;28;20807;-69
2021/10/02 12:39:35;;;;;;;0.77;0.50;;;21.30;56.90;;;;;;5117363;28;20435;-69
2021/10/02 12:42:02;;;;;;;1.00;0.60;;;21.10;56.80;;;;;;5116995;28;20434;-69
2021/10/02 12:44:31;;;;;;;0.97;0.70;;;21.00;56.90;;;;;;5117471;28;20442;-69
2021/10/02 12:47:01;;;;;;;4.80;0.67;;;20.80;57.30;;;;;;5117174;28;20446;-69
2021/10/02 12:49:29;;;;;;;0.70;0.50;;;20.80;58.00;;;;;;5117225;28;20427;-69
2021/10/02 12:51:56;;;;;;;0.90;0.77;;;20.70;58.60;;;;;;5117021;28;20462;-69
2021/10/02 12:54:26;;;;;;;1.50;0.73;;;20.70;57.60;;;;;;5117027;28;20444;-69
2021/10/02 12:57:06;;;;;;;1.60;1.07;;;20.80;57.30;;;;;;5117036;27;20431;-69
2021/10/02 12:59:58;;;;;;;2.40;0.73;;;21.00;57.20;;;;;;5116664;28;20452;-69
2021/10/02 13:02:27;;;;;;;0.80;0.70;;;21.30;56.70;;;;;;5116992;28;20459;-69
2021/10/02 13:04:54;;;;;;;0.50;0.50;;;21.40;55.80;;;;;;5116795;28;20443;-69
2021/10/02 13:07:30;;;;;;;1.47;0.67;;;21.50;55.20;;;;;;5116272;27;20952;-69
2021/10/02 13:10:00;;;;;;;3.40;0.73;;;21.60;55.20;;;;;;5116483;28;20904;-69
2021/10/02 13:12:29;;;;;;;1.17;0.80;;;21.70;54.90;;;;;;5116422;28;20839;-69
2021/10/02 13:15:00;;;;;;;2.57;0.50;;;21.70;54.00;;;;;;5116606;28;20454;-69
2021/10/02 13:17:28;;;;;;;1.33;0.90;;;21.70;53.90;;;;;;5116258;28;21035;-69
2021/10/02 13:20:10;;;;;;;0.50;0.50;;;21.80;54.00;;;;;;5116264;28;20451;-69
2021/10/02 13:22:42;;;;;;;1.30;0.60;;;21.50;54.20;;;;;;5116588;28;20451;-69
2021/10/02 13:25:12;;;;;;;0.70;0.70;;;21.60;54.40;;;;;;5116197;28;20438;-69
2021/10/02 13:27:41;;;;;;;2.20;0.70;;;21.70;53.30;;;;;;5116363;28;20466;-69
2021/10/02 13:30:10;;;;;;;1.00;0.80;;;22.00;53.30;;;;;;5116912;27;20450;-69
2021/10/02 13:32:39;;;;;;;0.93;0.60;;;22.20;52.40;;;;;;5116244;28;20487;-69
2021/10/02 13:35:09;;;;;;;1.70;0.80;;;22.30;51.90;;;;;;5116060;28;20920;-69
2021/10/02 13:37:44;;;;;;;1.23;0.83;;;22.40;51.80;;;;;;5116768;28;20478;-69
2021/10/02 13:40:20;;;;;;;1.47;0.87;;;22.40;52.00;;;;;;5116253;28;20456;-69
2021/10/02 13:42:48;;;;;;;1.83;0.83;;;22.40;51.70;;;;;;5116104;28;20423;-69
2021/10/02 13:45:15;;;;;;;1.90;0.90;;;22.40;51.60;;;;;;5115724;28;20947;-69
2021/10/02 13:47:55;;;;;;;1.40;1.00;;;22.40;51.20;;;;;;5115118;28;20469;-69
2021/10/02 13:50:22;;;;;;;1.30;1.00;;;22.40;51.20;;;;;;5115982;28;20463;-69
2021/10/02 13:52:49;;;;;;;1.07;0.90;;;22.30;51.00;;;;;;5116096;28;20487;-69
2021/10/02 13:55:16;;;;;;;1.10;0.80;;;22.30;51.30;;;;;;5116266;28;20414;-69
2021/10/02 13:57:43;;;;;;;0.97;0.67;;;22.10;51.00;;;;;;5115768;28;21010;-69
2021/10/02 14:00:11;;;;;;;2.00;0.90;;;22.00;51.10;;;;;;5115604;28;20438;-69